Flexuvium Australe, IN (46556)

03:55 AM EDT die 26o April, anno 2017 (GMT -0400)
MC7428 | | Change Station

Elev 734 ft 41.69 °N, 86.25 °W | Updated 18 minutes ago

Serena
Serena
65.0 °F
Feels Like 65.0 °F
N
0.0
Ventus Variabilis Ventus from Zephyrus

Hodie
High -- | Low -- °F
--% Chance of Precip.
Yesterday
High -- | Low -- °F
Precip. -- in
Pressio 29.60 in
Visibilitas 10.0 milia passuum
Clouds Serena
Frigus in quo Ros apparet 55 °F
Umor 71%
Rainfall 0.00 in
Snow Depth Not available.
6:48 AM 8:38 PM
Waning Crescent, 0% visible
METAR KSBN 260654Z AUTO 15012KT 10SM CLR 18/13 A2961 RMK AO2 SLP021 T01830128
Pressio 29.60 in
Visibilitas 10.0 milia passuum
Clouds Serena
Frigus in quo Ros apparet 55 °F
Umor 71%
Rainfall 0.00 in
Snow Depth Not available.
6:48 AM 8:38 PM
Waning Crescent, 0% visible
METAR KSBN 260654Z AUTO 15012KT 10SM CLR 18/13 A2961 RMK AO2 SLP021 T01830128

Get Severe Weather Alerts

Thanks for signing up!

Be on the lookout for a verification email in your inbox.

You'll start receiving the daily forecast at 8 AM.

×

10-Day Weather Forecast

Almanac

Astronomy

Apr. 26, 2017 Rise Set
Actual Time
Civil Twilight
Nautical Twilight
Astronomical Twilight
Moon
Length Of Visible Light
Length of Day
Tomorrow will be .
, % of the Moon is Illuminated

Today's Extremes

State Highs State Lows

Community

WunderPhotos

WunderBlog® & News

Nearby

Air Quality

  Air Quality AQ Index Pollutant
Not available.

Snow Depth

Station Depth Elevation

Earthquake Activity

City Distance Mag. Time & Date
Minimum magnitude displayed is 2.5.

Coastal Water Temperatures

Locus Calor

Stations

Nearby Weather Stations

Station Location Temp Frigus Venti Frigus in quo Ros apparet Umor Ventus Precip. Elev Renovata Type
                   

Watches & Warnings

There are currently no watches in effect.